Flight Track Log - Related Links

Times and Time Zones

All times are in EDT time to prevent confusion due to time zone crossing. See the GJS3649 flight status page for this flight to view local times or setup timezone preferences in your user account.

Time Position Orientation Groundspeed Altitude Reporting Facility
EDT Latitude Longitude Course Direction KTS MPH feet Rate Location/Type
Sat 01:48:09 PM 39.8667 -75.2667 238° Southwest 158 182 600  Level Philadelphia TRACON
Sat 01:48:24 PM 39.8586 -75.2833 238° Southwest 146 168 1,100 1,543 Climbing FAA TRACON SMA TRACON (SMA)
Sat 01:48:44 PM 39.8547 -75.3003 253° West 155 178 1,500 1,800 Climbing FAA TRACON SMA TRACON (SMA)
Sat 01:49:04 PM 39.8486 -75.3269 253° West 198 228 2,300 1,950 Climbing FAA TRACON SMA TRACON (SMA)
Sat 01:49:24 PM 39.8433 -75.3489 253° West 208 239 2,800 1,650 Climbing FAA TRACON SMA TRACON (SMA)
Sat 01:49:44 PM 39.8375 -75.3744 253° West 245 282 3,400 2,700 Climbing FAA TRACON SMA TRACON (SMA)
Sat 01:50:04 PM 39.8417 -75.4075 279° West 245 282 4,600 3,000 Climbing FAA TRACON SMA TRACON (SMA)
Sat 01:50:24 PM 39.8550 -75.4292 309° West 254 292 5,400 3,150 Climbing FAA TRACON SMA TRACON (SMA)
Sat 01:50:44 PM 39.8742 -75.4397 337° Northwest 240 276 6,700 3,600 Climbing FAA TRACON SMA TRACON (SMA)
Sat 01:51:04 PM 39.9017 -75.4489 346° North 258 297 7,800 2,850 Climbing FAA TRACON SMA TRACON (SMA)
Sat 01:51:24 PM 39.9231 -75.4567 344° North 259 298 8,600 2,400 Climbing FAA TRACON SMA TRACON (SMA)
Sat 01:51:44 PM 39.9447 -75.4644 345° North 262 302 9,400 2,550 Climbing FAA TRACON SMA TRACON (SMA)
Sat 01:52:04 PM 39.9714 -75.4739 345° North 264 304 10,300 2,550 Climbing FAA TRACON SMA TRACON (SMA)
Sat 01:52:24 PM 39.9953 -75.4825 345° North 271 312 11,100 2,250 Climbing FAA TRACON SMA TRACON (SMA)
Sat 01:52:44 PM 40.0189 -75.4906 345° North 281 323 11,800 2,093 Climbing FAA TRACON SMA TRACON (SMA)
Sat 01:53:07 PM 40.0492 -75.5011 345° North 292 336 12,600 1,674 Climbing FAA TRACON SMA TRACON (SMA)
Sat 01:53:27 PM 40.0747 -75.5097 346° North 301 346 13,000 649 Climbing FAA TRACON SMA TRACON (SMA)
Sat 01:53:44 PM 40.0997 -75.5183 345° North 307 353 13,000  Level FAA TRACON SMA TRACON (SMA)
Sat 01:54:04 PM 40.1347 -75.5303 345° North 352 405 13,000  Level FAA TRACON SMA TRACON (SMA)
Sat 01:54:24 PM 40.1650 -75.5411 345° North 357 411 13,000  Level FAA TRACON SMA TRACON (SMA)
Sat 01:54:44 PM 40.1950 -75.5517 345° North 367 422 13,000  Level FAA TRACON SMA TRACON (SMA)
Sat 01:55:04 PM 40.2231 -75.5692 335° Northwest 357 411 13,000  Level FAA TRACON SMA TRACON (SMA)
Sat 01:55:24 PM 40.2519 -75.6003 321° Northwest 358 412 13,000 300 Level FAA TRACON SMA TRACON (SMA)
Sat 01:55:44 PM 40.2756 -75.6231 324° Northwest 343 395 13,200 1,500 Climbing FAA TRACON SMA TRACON (SMA)
Sat 01:56:04 PM 40.3003 -75.6467 324° Northwest 353 406 14,000 2,250 Climbing FAA TRACON SMA TRACON (SMA)
Sat 01:56:24 PM 40.3319 -75.6747 326° Northwest 354 407 14,700 1,950 Climbing FAA TRACON SMA TRACON (SMA)
Sat 01:56:44 PM 40.3575 -75.6972 326° Northwest 359 413 15,300 1,500 Climbing FAA TRACON SMA TRACON (SMA)
Sat 01:57:04 PM 40.3775 -75.7136 328° Northwest 361 415 15,700 1,500 Climbing FAA TRACON SMA TRACON (SMA)
Sat 01:57:24 PM 40.4039 -75.7361 327° Northwest 366 421 16,300 600 Climbing FAA TRACON SMA TRACON (SMA)
Sat 01:58:04 PM 40.4039 -75.7361 217° Southwest 366 421 16,300 506 Level FAA TRACON SMA TRACON (SMA)
Sat 01:58:47 PM 40.4903 -75.8850 307° West 348 400 17,000 1,385 Climbing New York Center
Sat 01:59:48 PM 40.5000 -75.9978 277° West 346 398 18,700 1,736 Climbing New York Center
Sat 02:00:48 PM 40.5106 -76.1378 276° West 352 405 20,500 1,627 Climbing New York Center
Sat 02:01:46 PM 40.5211 -76.2669 276° West 352 405 21,900 1,525 Climbing New York Center
Sat 02:02:46 PM 40.5339 -76.3964 277° West 352 405 23,500 1,438 Climbing New York Center
Sat 02:03:47 PM 40.5442 -76.5256 276° West 352 405 24,800 1,190 Climbing New York Center
Sat 02:04:47 PM 40.5547 -76.6547 276° West 358 412 25,900 958 Climbing New York Center
Sat 02:05:46 PM 40.5686 -76.7928 278° West 368 423 26,700 908 Climbing New York Center
Sat 02:06:46 PM 40.5803 -76.9303 276° West 375 432 27,700 1,091 Climbing New York Center
Sat 02:07:47 PM 40.5939 -77.0683 277° West 375 432 28,900 1,140 Climbing New York Center
Sat 02:08:47 PM 40.6056 -77.1978 277° West 375 432 30,000 1,088 Climbing New York Center
Sat 02:11:11 PM 40.6328 -77.5186 276° West 352 405 32,600 1,029 Climbing Cleveland Center
Sat 02:12:11 PM 40.6422 -77.6494 275° West 357 411 33,500 700 Climbing Cleveland Center
Sat 02:13:11 PM 40.6539 -77.7806 277° West 362 417 34,000 250 Climbing Cleveland Center
Sat 02:14:11 PM 40.6719 -77.9194 280° West 373 429 34,000  Level Cleveland Center
Sat 02:15:11 PM 40.6894 -78.0528 280° West 373 429 34,000  Level Cleveland Center
Sat 02:16:11 PM 40.7092 -78.1836 281° West 373 429 34,000  Level Cleveland Center
Sat 02:17:11 PM 40.7264 -78.3144 280° West 367 422 34,000  Level Cleveland Center
Sat 02:18:11 PM 40.7456 -78.4428 281° West 367 422 34,000  Level Cleveland Center
Sat 02:19:11 PM 40.7625 -78.5736 280° West 367 422 34,000  Level Cleveland Center
Sat 02:20:11 PM 40.7814 -78.7019 281° West 367 422 34,000  Level Cleveland Center
Sat 02:21:11 PM 40.7958 -78.8333 278° West 367 422 34,000  Level Cleveland Center
Sat 02:22:11 PM 40.8144 -78.9508 282° West 367 422 34,000  Level Cleveland Center
Sat 02:23:11 PM 40.8308 -79.0847 279° West 372 428 34,000  Level Cleveland Center
Sat 02:24:11 PM 40.8492 -79.2189 280° West 372 428 34,000  Level Cleveland Center
Sat 02:25:11 PM 40.8653 -79.3531 279° West 372 428 34,000  Level Cleveland Center
Sat 02:26:11 PM 40.8833 -79.4928 280° West 372 428 34,000  Level Cleveland Center
Sat 02:27:11 PM 40.8992 -79.6244 279° West 372 428 34,000 -600 Level Cleveland Center
Sat 02:28:11 PM 40.9169 -79.7589 280° West 372 428 32,800 -1,050 Descending Cleveland Center
Sat 02:29:11 PM 40.9322 -79.8878 279° West 372 428 31,900 -400 Descending Cleveland Center
Sat 02:30:11 PM 40.9475 -80.0222 279° West 372 428 32,000 50 Climbing Cleveland Center
Sat 02:31:11 PM 40.9628 -80.1542 279° West 372 428 32,000  Level Cleveland Center
Sat 02:32:11 PM 40.9778 -80.2861 279° West 372 428 32,000  Level Cleveland Center
Sat 02:33:11 PM 40.9969 -80.4372 280° West 372 428 32,000  Level Cleveland Center
Sat 02:34:11 PM 41.0136 -80.5694 280° West 372 428 32,000  Level Cleveland Center
Sat 02:35:11 PM 41.0281 -80.7042 278° West 372 428 32,000  Level Cleveland Center
Sat 02:36:11 PM 41.0444 -80.8392 279° West 372 428 32,000  Level Cleveland Center
Sat 02:37:11 PM 41.0547 -80.9714 276° West 367 422 32,000  Level Cleveland Center
Sat 02:38:11 PM 41.0603 -81.0925 274° West 367 422 32,000  Level Cleveland Center
Sat 02:39:11 PM 41.0681 -81.2275 274° West 367 422 32,000  Level Cleveland Center
Sat 02:40:11 PM 41.0775 -81.3597 275° West 367 422 32,000  Level Cleveland Center
Sat 02:41:11 PM 41.0869 -81.4978 275° West 367 422 32,000  Level Cleveland Center
Sat 02:42:11 PM 41.0942 -81.6467 274° West 367 422 32,000  Level Cleveland Center
Sat 02:43:11 PM 41.1031 -81.7817 275° West 367 422 32,000  Level Cleveland Center
Sat 02:44:11 PM 41.1100 -81.9169 274° West 367 422 32,000  Level Cleveland Center
Sat 02:45:11 PM 41.1167 -82.0550 274° West 367 422 32,000  Level Cleveland Center
Sat 02:46:11 PM 41.1253 -82.1903 275° West 367 422 32,000  Level Cleveland Center
Sat 02:47:11 PM 41.1317 -82.3281 274° West 372 428 32,000  Level Cleveland Center
Sat 02:48:11 PM 41.1381 -82.4525 274° West 372 428 32,000  Level Cleveland Center
Sat 02:49:11 PM 41.1458 -82.5933 274° West 372 428 32,000  Level Cleveland Center
Sat 02:50:11 PM 41.1539 -82.7342 274° West 386 444 32,000  Level Cleveland Center
Sat 02:51:11 PM 41.1614 -82.8750 274° West 386 444 32,000  Level Cleveland Center
Sat 02:52:11 PM 41.1669 -83.0133 273° West 386 444 32,000  Level Cleveland Center
Sat 02:53:11 PM 41.1739 -83.1681 273° West 391 450 32,000  Level Cleveland Center
Sat 02:54:11 PM 41.1811 -83.3089 274° West 386 444 32,000  Level Cleveland Center
Sat 02:55:11 PM 41.1881 -83.4500 274° West 386 444 32,000  Level Cleveland Center
Sat 02:56:11 PM 41.1947 -83.5939 274° West 386 444 32,000  Level Cleveland Center
Sat 02:57:11 PM 41.1992 -83.7375 272° West 386 444 32,000  Level Cleveland Center
Sat 02:58:11 PM 41.2056 -83.8842 273° West 386 444 32,000  Level Cleveland Center
Sat 03:00:23 PM 41.2211 -84.1806 274° West 392 451 32,000  Level Chicago Center
Sat 03:01:25 PM 41.2281 -84.3258 274° West 395 455 32,000  Level Chicago Center
Sat 03:02:26 PM 41.2331 -84.4717 273° West 395 455 32,000  Level Chicago Center
Sat 03:03:28 PM 41.2381 -84.6169 273° West 394 453 32,000  Level Chicago Center
Sat 03:04:30 PM 41.2447 -84.7925 273° West 396 456 32,000  Level Chicago Center
Sat 03:05:31 PM 41.2494 -84.9381 273° West 395 455 32,000  Level Chicago Center
Sat 03:06:33 PM 41.2542 -85.0817 273° West 389 448 32,000 -683 Level Chicago Center
Sat 03:07:34 PM 41.2600 -85.2253 273° West 387 445 30,600 -1,317 Descending Chicago Center
Sat 03:08:36 PM 41.2642 -85.3636 272° West 377 434 29,300 -1,268 Descending Chicago Center
Sat 03:09:37 PM 41.2833 -85.4936 281° West 364 419 28,000 -1,268 Descending Chicago Center
Sat 03:10:39 PM 41.3203 -85.6208 291° West 368 423 26,700 -1,268 Descending Chicago Center
Sat 03:11:40 PM 41.3575 -85.7497 291° West 371 427 25,400 -829 Descending Chicago Center
Sat 03:12:42 PM 41.3961 -85.8808 291° West 378 435 25,000 -195 Descending Chicago Center
Sat 03:13:43 PM 41.4339 -86.0133 291° West 381 438 25,000  Level Chicago Center
Sat 03:14:45 PM 41.4792 -86.1708 291° West 380 437 25,000 -1,024 Level Chicago Center
Sat 03:15:46 PM 41.5172 -86.3017 291° West 378 435 22,900 -2,488 Descending Chicago Center
Sat 03:16:48 PM 41.5533 -86.4278 291° West 367 422 19,900 -2,927 Descending Chicago Center
Sat 03:17:49 PM 41.5867 -86.5439 291° West 341 392 16,900 -2,683 Descending Chicago Center
Sat 03:18:51 PM 41.6169 -86.6519 291° West 318 366 14,400 -2,293 Descending Chicago Center
Sat 03:19:52 PM 41.6475 -86.7603 291° West 305 351 12,200 -1,171 Descending Chicago Center
Sat 03:20:54 PM 41.7267 -86.8017 339° North 325 374 12,000 -98 Descending Chicago Center
Sat 03:21:55 PM 41.8178 -86.8186 352° North 331 381 12,000 -341 Level Chicago Center
Sat 03:22:57 PM 41.9042 -86.8847 330° Northwest 315 362 11,300 -878 Descending Chicago Center
Sat 03:23:58 PM 41.9214 -86.9931 282° West 304 350 10,200 -639 Descending Chicago Center
Sat 03:24:59 PM 41.9353 -87.0989 280° West 294 338 10,000 -439 Descending Chicago Center
Sat 03:26:01 PM 41.9492 -87.1956 281° West 274 315 9,300 -1,122 Descending Chicago Center
Sat 03:27:02 PM 41.9597 -87.2797 280° West 240 276 7,700 -1,122 Descending Chicago Center
Sat 03:28:04 PM 41.9703 -87.3639 280° West 232 267 7,000 -416 Descending Chicago Center
Sat 03:28:43 PM 41.9833 -87.4333 284° West 234 269 7,000 -65 Level Chicago TRACON
Sat 03:29:37 PM 41.9833 -87.5000 270° West 230 265 6,900 -947 Descending Chicago TRACON
Sat 03:30:37 PM 41.9833 -87.6000 270° West 247 284 5,200 -1,350 Descending Chicago TRACON
Sat 03:31:37 PM 41.9833 -87.6833 270° West 200 230 4,200 -1,150 Descending Chicago TRACON
Sat 03:32:37 PM 41.9833 -87.7500 270° West 192 221 2,900 -1,140 Descending Chicago TRACON
Sat 03:33:38 PM 41.9833 -87.8167 270° West 158 182 1,900 -843 Descending Chicago TRACON
Sat 03:34:38 PM 41.9833 -87.8500 270° West 115 132 1,200 -700 Descending Chicago TRACON
Sat 03:37:00 PM 41.9667 -87.9000 270° West  Level FlightAware Approximate

Login

Don't have an account? Register now (free) for customized features, flight alerts, and more!